Burtons, Mississippi
Current Conditions -  °F | °C
As of 10:35 AM on Saturday 22 Nov 2014 (Local Time) from KCRX Reporting Station
Overcast Overcast  
Wind Chill: 64°   Ceiling: 10000
Heat Index: 64°   Visibility: 10mi
Dew Point: 34°   Wind: 15mph
Humidity: 32%   Direction: 160°SSE
Pressure: 30.28"   Gusts: 22mph
Location:  34.6741°N, 88.5234°W
Report Text: KCRX 221635Z AUTO 16013G19KT 10SM OVC100 18/01 A3028 RMK AO2
Loading
Personal Weather Stations






























Interactive Weather Map New forecast layout! Learn more

10-Day Weather Forecast

Advertisements
Track Severe Weather on mobile